createdAt,value
2022-09-03T00:00:25.110Z,18.4
2022-09-03T00:05:31.312Z,18.4
2022-09-03T00:10:37.519Z,18.3
2022-09-03T00:15:43.811Z,18.2
2022-09-03T00:20:49.944Z,18.2
2022-09-03T00:25:55.178Z,18.1
2022-09-03T00:31:01.483Z,18.1
2022-09-03T00:36:06.622Z,18.0
2022-09-03T00:41:12.824Z,18.0
2022-09-03T00:46:19.080Z,18.0
2022-09-03T00:51:25.245Z,17.9
2022-09-03T00:56:31.447Z,17.9
2022-09-03T01:01:37.801Z,17.8
2022-09-03T01:06:43.863Z,17.8
2022-09-03T01:11:50.081Z,17.7
2022-09-03T01:16:56.283Z,17.7
2022-09-03T01:22:02.493Z,17.7
2022-09-03T01:27:08.698Z,17.6
2022-09-03T01:32:14.902Z,17.6
2022-09-03T01:37:21.119Z,17.5
2022-09-03T01:42:27.325Z,17.5
2022-09-03T01:47:33.526Z,17.5
2022-09-03T01:52:39.735Z,17.5
2022-09-03T01:57:45.957Z,17.4
2022-09-03T02:02:52.296Z,17.4
2022-09-03T02:07:58.361Z,17.4
2022-09-03T02:13:04.567Z,17.3
2022-09-03T02:18:10.778Z,17.3
2022-09-03T02:23:16.021Z,17.2
2022-09-03T02:28:22.221Z,17.2
2022-09-03T02:33:28.429Z,17.1
2022-09-03T02:38:33.683Z,17.1
2022-09-03T02:43:39.874Z,17.0
2022-09-03T02:48:46.079Z,17.0
2022-09-03T02:53:52.291Z,17.0
2022-09-03T02:58:58.512Z,16.9
2022-09-03T03:04:04.718Z,16.9
2022-09-03T03:09:10.915Z,16.8
2022-09-03T03:14:17.124Z,16.8
2022-09-03T03:19:23.333Z,16.8
2022-09-03T03:24:29.539Z,16.7
2022-09-03T03:29:35.743Z,16.7
2022-09-03T03:34:41.957Z,16.6
2022-09-03T03:39:48.236Z,16.6
2022-09-03T03:44:54.375Z,16.5
2022-09-03T03:50:00.583Z,16.5
2022-09-03T03:55:06.794Z,16.5
2022-09-03T04:00:12.997Z,16.5
2022-09-03T04:05:19.212Z,16.4
2022-09-03T04:10:25.446Z,16.4
2022-09-03T04:15:31.616Z,16.3
2022-09-03T04:20:37.827Z,16.3
2022-09-03T04:25:43.066Z,16.2
2022-09-03T04:30:49.375Z,16.2
2022-09-03T04:35:54.507Z,16.2
2022-09-03T04:41:00.725Z,16.1
2022-09-03T04:46:06.965Z,16.1
2022-09-03T04:51:13.143Z,16.1
2022-09-03T04:56:19.359Z,16.0
2022-09-03T05:01:25.630Z,16.0
2022-09-03T05:06:31.786Z,16.0
2022-09-03T05:11:38.002Z,16.0
2022-09-03T05:16:44.252Z,15.9
2022-09-03T05:21:50.417Z,16.0
2022-09-03T05:26:56.624Z,16.0
2022-09-03T05:32:02.889Z,16.0
2022-09-03T05:37:09.050Z,16.0
2022-09-03T05:42:15.259Z,16.0
2022-09-03T05:47:21.467Z,16.0
2022-09-03T05:52:27.686Z,16.0
2022-09-03T05:57:33.893Z,16.1
2022-09-03T06:02:40.301Z,16.1
2022-09-03T06:07:46.315Z,16.2
2022-09-03T06:12:52.519Z,16.3
2022-09-03T06:17:58.740Z,16.5
2022-09-03T06:23:03.967Z,16.7
2022-09-03T06:28:10.179Z,16.9
2022-09-03T06:33:15.445Z,17.1
2022-09-03T06:38:21.656Z,17.4
2022-09-03T06:43:27.830Z,17.7
2022-09-03T06:48:34.042Z,18.1
2022-09-03T06:53:40.247Z,18.5
2022-09-03T06:58:46.448Z,18.8
2022-09-03T07:03:52.661Z,19.2
2022-09-03T07:08:58.868Z,19.6
2022-09-03T07:14:05.083Z,20.0
2022-09-03T07:19:11.284Z,20.3
2022-09-03T07:24:17.498Z,20.7
2022-09-03T07:29:23.710Z,21.0
2022-09-03T07:34:29.910Z,21.3
2022-09-03T07:39:36.172Z,21.6
2022-09-03T07:44:42.331Z,22.0
2022-09-03T07:49:48.690Z,22.2
2022-09-03T07:54:54.744Z,22.5
2022-09-03T08:00:00.956Z,22.7
2022-09-03T08:05:07.163Z,23.0
2022-09-03T08:10:13.379Z,23.2
2022-09-03T08:15:19.580Z,23.3
2022-09-03T08:20:24.817Z,23.5
2022-09-03T08:25:31.024Z,23.7
2022-09-03T08:30:36.290Z,23.9
2022-09-03T08:35:42.472Z,24.1
2022-09-03T08:40:48.688Z,24.2
2022-09-03T08:45:54.886Z,24.4
2022-09-03T08:51:01.100Z,24.5
2022-09-03T08:56:07.333Z,24.7
2022-09-03T09:01:13.517Z,24.9
2022-09-03T09:06:19.727Z,25.1
2022-09-03T09:11:25.938Z,25.3
2022-09-03T09:16:32.144Z,25.5
2022-09-03T09:21:38.351Z,25.6
2022-09-03T09:26:44.558Z,25.8
2022-09-03T09:31:50.773Z,25.9
2022-09-03T09:36:56.982Z,26.1
2022-09-03T09:42:03.186Z,26.3
2022-09-03T09:47:09.395Z,26.5
2022-09-03T09:52:15.616Z,26.5
2022-09-03T09:57:21.818Z,26.7
2022-09-03T10:02:28.094Z,26.8
2022-09-03T10:07:34.245Z,26.9
2022-09-03T10:12:40.483Z,27.0
2022-09-03T10:17:45.713Z,27.1
2022-09-03T10:22:57.435Z,27.2
2022-09-03T10:27:57.169Z,27.3
2022-09-03T10:33:03.383Z,27.3
2022-09-03T10:38:09.596Z,27.3
2022-09-03T10:43:15.819Z,27.5
2022-09-03T10:48:22.113Z,27.6
2022-09-03T10:53:28.473Z,0.0
2022-09-03T10:58:34.693Z,28.0
2022-09-03T11:03:40.911Z,28.1
2022-09-03T11:08:47.127Z,28.2
2022-09-03T11:13:53.370Z,28.3
2022-09-03T11:18:59.562Z,28.4
2022-09-03T11:24:05.781Z,28.5
2022-09-03T11:29:12.015Z,28.7
2022-09-03T11:34:23.323Z,28.8
2022-09-03T11:39:24.511Z,28.8
2022-09-03T11:44:30.662Z,28.8
2022-09-03T11:49:36.879Z,28.8
2022-09-03T11:54:43.106Z,28.8
2022-09-03T11:59:49.319Z,28.9
2022-09-03T12:04:55.834Z,28.9
2022-09-03T12:10:01.772Z,29.0
2022-09-03T12:15:07.022Z,29.2
2022-09-03T12:20:13.241Z,29.3
2022-09-03T12:25:19.472Z,29.3
2022-09-03T12:30:25.688Z,29.4
2022-09-03T12:41:24.198Z,29.4
2022-09-03T12:50:56.712Z,29.4
2022-09-03T12:55:56.797Z,29.4
2022-09-03T13:01:03.124Z,29.5
2022-09-03T13:06:09.242Z,29.6
2022-09-03T13:11:15.448Z,29.7
2022-09-03T13:16:21.694Z,29.9
2022-09-03T13:21:27.879Z,30.0
2022-09-03T13:26:34.097Z,30.0
2022-09-03T13:31:40.316Z,30.0
2022-09-03T13:36:46.529Z,30.1
2022-09-03T13:41:52.743Z,30.2
2022-09-03T13:46:58.961Z,30.3
2022-09-03T13:52:05.177Z,30.3
2022-09-03T13:57:11.387Z,30.3
2022-09-03T14:02:16.719Z,30.2
2022-09-03T14:07:22.850Z,30.3
2022-09-03T14:12:28.089Z,30.5
2022-09-03T14:17:34.296Z,30.6
2022-09-03T14:22:40.515Z,30.6
2022-09-03T14:27:46.728Z,30.8
2022-09-03T14:32:52.937Z,30.8
2022-09-03T14:37:59.151Z,30.9
2022-09-03T14:43:05.357Z,30.9
2022-09-03T14:48:11.572Z,30.9
2022-09-03T14:53:17.869Z,30.8
2022-09-03T14:58:23.995Z,30.8
2022-09-03T15:03:30.199Z,30.9
2022-09-03T15:08:36.415Z,30.9
2022-09-03T15:13:41.648Z,30.9
2022-09-03T15:18:47.854Z,30.8
2022-09-03T15:23:54.071Z,30.9
2022-09-03T15:34:06.493Z,30.9
2022-09-03T15:39:13.637Z,30.9
2022-09-03T15:44:19.839Z,30.9
2022-09-03T15:49:25.129Z,30.9
2022-09-03T15:54:31.331Z,30.9
2022-09-03T15:59:37.545Z,30.9
2022-09-03T16:04:42.778Z,30.9
2022-09-03T16:10:07.587Z,30.9
2022-09-03T16:14:54.236Z,30.9
2022-09-03T16:20:00.455Z,30.8
2022-09-03T16:25:05.680Z,30.8
2022-09-03T16:30:11.897Z,30.7
2022-09-03T16:35:18.104Z,30.7
2022-09-03T16:40:26.684Z,30.6
2022-09-03T16:45:30.587Z,30.5
2022-09-03T16:50:36.738Z,30.4
2022-09-03T16:55:42.941Z,30.4
2022-09-03T17:00:49.254Z,30.3
2022-09-03T17:05:55.379Z,30.1
2022-09-03T17:11:01.589Z,29.9
2022-09-03T17:16:07.856Z,29.7
2022-09-03T17:21:14.022Z,29.5
2022-09-03T17:26:20.241Z,29.2
2022-09-03T17:31:26.544Z,29.0
2022-09-03T17:36:32.675Z,28.8
2022-09-03T17:41:38.911Z,28.6
2022-09-03T17:46:45.205Z,28.4
2022-09-03T17:51:51.334Z,28.1
2022-09-03T17:56:57.552Z,27.9
2022-09-03T18:02:03.795Z,27.7
2022-09-03T18:07:09.986Z,27.5
2022-09-03T18:12:15.236Z,27.3
2022-09-03T18:17:21.449Z,27.1
2022-09-03T18:22:27.664Z,26.8
2022-09-03T18:27:33.891Z,26.6
2022-09-03T18:32:40.097Z,26.4
2022-09-03T18:37:46.308Z,26.1
2022-09-03T18:42:52.520Z,25.9
2022-09-03T18:48:02.917Z,25.6
2022-09-03T18:53:04.934Z,25.3
2022-09-03T18:58:11.145Z,25.0
2022-09-03T19:03:17.431Z,24.8
2022-09-03T19:08:23.561Z,24.6
2022-09-03T19:13:29.773Z,24.4
2022-09-03T19:18:36.010Z,24.2
2022-09-03T19:23:42.192Z,24.0
2022-09-03T19:28:48.402Z,23.9
2022-09-03T19:33:54.611Z,23.7
2022-09-03T19:39:00.837Z,23.5
2022-09-03T19:44:07.026Z,23.4
2022-09-03T19:49:13.247Z,23.2
2022-09-03T19:54:19.446Z,23.0
2022-09-03T19:59:24.680Z,22.9
2022-09-03T20:04:30.891Z,22.7
2022-09-03T20:09:36.124Z,22.5
2022-09-03T20:14:42.335Z,22.4
2022-09-03T20:19:48.546Z,22.2
2022-09-03T20:24:54.967Z,22.1
2022-09-03T20:30:00.962Z,22.0
2022-09-03T20:35:07.187Z,21.9
2022-09-03T20:40:13.383Z,21.8
2022-09-03T20:45:19.590Z,21.6
2022-09-03T20:50:25.800Z,21.5
2022-09-03T20:55:32.011Z,21.4
2022-09-03T21:00:38.213Z,21.4
2022-09-03T21:05:44.432Z,21.3
2022-09-03T21:10:50.637Z,21.2
2022-09-03T21:15:56.952Z,21.0
2022-09-03T21:21:03.050Z,20.9
2022-09-03T21:26:09.259Z,20.8
2022-09-03T21:31:15.522Z,20.8
2022-09-03T21:36:22.227Z,20.8
2022-09-03T21:41:27.883Z,20.7
2022-09-03T21:46:34.101Z,20.8
2022-09-03T21:51:40.308Z,20.8
2022-09-03T21:56:45.538Z,20.9
2022-09-03T22:06:57.954Z,20.9
2022-09-03T22:12:04.169Z,20.9
2022-09-03T22:17:09.399Z,20.9
2022-09-03T22:22:15.627Z,20.9
2022-09-03T22:27:20.855Z,20.9
2022-09-03T22:32:27.069Z,20.8
2022-09-03T22:37:33.270Z,20.8
2022-09-03T22:42:39.472Z,20.8
2022-09-03T22:47:45.679Z,20.7
2022-09-03T22:52:51.888Z,20.6
2022-09-03T22:57:58.098Z,20.5
2022-09-03T23:03:04.306Z,20.4
2022-09-03T23:08:10.513Z,20.3
2022-09-03T23:13:16.719Z,20.2
2022-09-03T23:18:23.046Z,20.1
2022-09-03T23:23:29.150Z,20.0
2022-09-03T23:28:35.341Z,19.9
2022-09-03T23:33:41.556Z,19.9
2022-09-03T23:38:47.766Z,19.8
2022-09-03T23:43:53.978Z,19.7
2022-09-03T23:49:00.184Z,19.6
2022-09-03T23:54:06.389Z,19.5
2022-09-03T23:59:12.592Z,19.5
